Portada
METAR-TAF:

METAR-TAF

Aeroports :

Aeroport Internacional de Bahrain

Bahrain, Bahrain

latitud: 26-16N, longitud: 050-39E, altitud: 2 m

Observació

L'informe es va fer fa 21 minuts, a les 00:30 UTC
Vent 7 kt del Oest
Temperatura 34°C
Humitat 41%
Pressió 997 hPa
Visibilitat 10 km o més
sense núvols per sota de 1500 mi sense presència de cumulonimbus.

METAR: OBBI 200030Z 26007KT CAVOK 34/19 Q0997 NOSIG

Hora: 03:51 (00:51 UTC)

Pronòstic

L'informe es va fer fa 1 hora i 51 minuts, a les 23:00 UTC
Pronòstic vàlid del 20 a les 00 UTC al 21 a les 06 UTC
Vent 5 kt del Nord-Oest
Visibilitat 10 km o més
sense núvols per sota de 1500 mi sense presència de cumulonimbus.
Evolucionant progressivament
l' 20 a les 04 UTC al 20 a les 06 UTC
Vent 15 kt del Nord/Nord-Oest
Evolucionant progressivament
l' 20 a les 16 UTC al 20 a les 18 UTC
Vent 5 kt del Oest/Nord-Oest

TAF: OBBI 192300Z 2000/2106 31005KT CAVOK BECMG 2004/2006 33015KT BECMG 2016/2018 30005KT

Observacions i pronòstics meteorològics de més de 4000 aeroports (METAR i TAF).

Les estacions disponibles són els punts grocs i vermells al mapa.

Posi el ratolí al punt desitjat per veure el nom de l'estació.

Feu clic per veure les observacions i els pronòstics meteorològics.

Per canviar el mapa: feu clic els botons verds amb una creu de color negre per apropar; al botó verd amb un guió per allunyar la imatge; o en les fletxes verdes per a mapes adjacents.


METAR-TAF: